createdAt,value
2019-02-18T00:00:11.063Z,46.35
2019-02-18T00:01:11.104Z,47.11
2019-02-18T00:03:04.095Z,45.88
2019-02-18T00:04:04.135Z,44.84
2019-02-18T00:05:57.130Z,42.27
2019-02-18T00:06:57.170Z,42.27
2019-02-18T00:08:50.141Z,40.95
2019-02-18T00:09:50.195Z,40.66
2019-02-18T00:11:43.206Z,40.00
2019-02-18T00:12:43.234Z,40.66
2019-02-18T00:14:36.209Z,39.90
2019-02-18T00:15:36.264Z,39.34
2019-02-18T00:17:29.244Z,40.28
2019-02-18T00:18:29.293Z,39.90
2019-02-18T00:20:22.271Z,39.72
2019-02-18T00:21:22.322Z,40.47
2019-02-18T00:23:15.302Z,40.19
2019-02-18T00:24:15.360Z,40.57
2019-02-18T00:26:08.339Z,40.47
2019-02-18T00:27:08.391Z,40.95
2019-02-18T00:29:01.378Z,41.33
2019-02-18T00:30:01.433Z,42.47
2019-02-18T00:31:54.411Z,42.75
2019-02-18T00:32:54.461Z,42.47
2019-02-18T00:34:47.435Z,41.61
2019-02-18T00:35:47.549Z,41.80
2019-02-18T00:37:40.474Z,42.18
2019-02-18T00:38:40.524Z,42.75
2019-02-18T00:40:33.790Z,41.42
2019-02-18T00:41:33.555Z,41.80
2019-02-18T00:43:26.528Z,41.61
2019-02-18T00:44:26.584Z,41.33
2019-02-18T00:46:19.564Z,40.76
2019-02-18T00:47:19.613Z,40.55
2019-02-18T00:49:12.591Z,38.77
2019-02-18T00:50:12.647Z,38.29
2019-02-18T00:52:05.630Z,37.61
2019-02-18T00:53:05.677Z,37.73
2019-02-18T00:54:58.662Z,38.58
2019-02-18T00:55:58.705Z,38.84
2019-02-18T00:57:51.693Z,37.90
2019-02-18T00:58:51.741Z,37.80
2019-02-18T01:00:44.734Z,38.09
2019-02-18T01:01:44.791Z,37.90
2019-02-18T01:03:37.769Z,38.09
2019-02-18T01:04:37.821Z,40.55
2019-02-18T01:06:30.799Z,41.78
2019-02-18T01:07:34.884Z,40.55
2019-02-18T01:09:23.820Z,41.80
2019-02-18T01:10:23.876Z,42.37
2019-02-18T01:12:16.853Z,41.97
2019-02-18T01:13:16.901Z,41.59
2019-02-18T01:15:09.878Z,38.94
2019-02-18T01:16:09.934Z,37.90
2019-02-18T01:18:02.928Z,37.90
2019-02-18T01:19:02.985Z,37.90
2019-02-18T01:20:55.951Z,37.80
2019-02-18T01:21:56.006Z,36.85
2019-02-18T01:23:48.987Z,38.28
2019-02-18T01:24:49.036Z,36.76
2019-02-18T01:26:42.005Z,35.81
2019-02-18T01:27:42.064Z,35.91
2019-02-18T01:29:35.041Z,37.04
2019-02-18T01:30:35.088Z,37.71
2019-02-18T01:32:28.073Z,39.41
2019-02-18T01:33:28.120Z,38.65
2019-02-18T01:35:21.092Z,38.18
2019-02-18T01:36:23.000Z,38.94
2019-02-18T01:38:14.124Z,37.90
2019-02-18T01:39:14.171Z,38.09
2019-02-18T01:41:07.150Z,37.80
2019-02-18T01:42:07.204Z,37.99
2019-02-18T01:44:00.193Z,36.66
2019-02-18T01:45:00.325Z,35.91
2019-02-18T01:46:53.210Z,35.91
2019-02-18T01:47:53.262Z,35.34
2019-02-18T01:49:46.241Z,34.86
2019-02-18T01:50:46.290Z,35.15
2019-02-18T01:52:39.268Z,34.30
2019-02-18T01:53:39.317Z,36.38
2019-02-18T01:55:32.291Z,38.56
2019-02-18T01:56:32.345Z,37.04
2019-02-18T01:58:25.326Z,35.72
2019-02-18T01:59:25.380Z,35.91
2019-02-18T02:01:18.351Z,35.43
2019-02-18T02:02:18.401Z,35.05
2019-02-18T02:04:11.388Z,35.72
2019-02-18T02:05:11.452Z,35.05
2019-02-18T02:07:04.414Z,36.10
2019-02-18T02:08:04.468Z,35.62
2019-02-18T02:09:57.448Z,34.96
2019-02-18T02:10:57.496Z,35.53
2019-02-18T02:12:50.978Z,36.76
2019-02-18T02:13:51.028Z,35.91
2019-02-18T02:15:44.016Z,35.70
2019-02-18T02:16:44.063Z,35.03
2019-02-18T02:18:37.051Z,33.81
2019-02-18T02:19:37.097Z,33.71
2019-02-18T02:21:30.091Z,34.66
2019-02-18T02:22:30.143Z,34.75
2019-02-18T02:24:23.106Z,33.90
2019-02-18T02:25:23.146Z,34.00
2019-02-18T02:27:16.127Z,33.52
2019-02-18T02:28:16.184Z,33.62
2019-02-18T02:30:09.161Z,33.81
2019-02-18T02:31:09.208Z,33.90
2019-02-18T02:33:02.178Z,33.33
2019-02-18T02:34:02.233Z,34.75
2019-02-18T02:35:55.215Z,34.19
2019-02-18T02:36:55.273Z,33.90
2019-02-18T02:38:48.244Z,34.47
2019-02-18T02:39:48.289Z,34.28
2019-02-18T02:41:41.261Z,35.22
2019-02-18T02:42:41.316Z,36.08
2019-02-18T02:44:34.293Z,35.89
2019-02-18T02:45:34.345Z,34.47
2019-02-18T02:47:27.317Z,33.04
2019-02-18T02:48:27.376Z,33.43
2019-02-18T02:50:20.348Z,34.66
2019-02-18T02:51:20.400Z,33.90
2019-02-18T02:53:13.368Z,33.23
2019-02-18T02:54:13.422Z,32.67
2019-02-18T02:56:06.408Z,33.81
2019-02-18T02:57:06.453Z,33.33
2019-02-18T02:58:59.434Z,33.52
2019-02-18T02:59:59.487Z,33.62
2019-02-18T03:01:52.456Z,34.75
2019-02-18T03:02:52.508Z,34.66
2019-02-18T03:04:45.495Z,34.19
2019-02-18T03:05:45.544Z,32.86
2019-02-18T03:07:38.517Z,34.19
2019-02-18T03:08:38.576Z,35.70
2019-02-18T03:10:31.558Z,34.75
2019-02-18T03:11:31.866Z,33.81
2019-02-18T03:13:26.078Z,32.10
2019-02-18T03:14:26.128Z,31.82
2019-02-18T03:16:19.125Z,31.15
2019-02-18T03:17:19.175Z,31.63
2019-02-18T03:19:12.156Z,32.29
2019-02-18T03:20:12.200Z,33.14
2019-02-18T03:22:05.177Z,34.47
2019-02-18T03:23:05.225Z,34.66
2019-02-18T03:24:58.201Z,33.43
2019-02-18T03:25:58.252Z,32.76
2019-02-18T03:27:51.232Z,32.86
2019-02-18T03:28:51.286Z,33.23
2019-02-18T03:30:44.274Z,32.86
2019-02-18T03:31:44.322Z,33.23
2019-02-18T03:33:37.290Z,32.48
2019-02-18T03:34:37.352Z,32.01
2019-02-18T03:36:30.325Z,31.44
2019-02-18T03:37:30.377Z,32.20
2019-02-18T03:39:23.349Z,31.82
2019-02-18T03:40:23.400Z,32.57
2019-02-18T03:42:16.402Z,32.76
2019-02-18T03:43:16.432Z,32.29
2019-02-18T03:45:09.404Z,32.29
2019-02-18T03:46:09.464Z,31.44
2019-02-18T03:48:02.428Z,31.53
2019-02-18T03:49:02.483Z,30.47
2019-02-18T03:50:55.467Z,29.91
2019-02-18T03:51:55.515Z,29.43
2019-02-18T03:53:48.474Z,29.83
2019-02-18T03:54:48.536Z,30.00
2019-02-18T03:56:41.516Z,30.68
2019-02-18T03:57:41.561Z,30.85
2019-02-18T03:59:34.534Z,30.76
2019-02-18T04:00:34.586Z,30.76
2019-02-18T04:02:27.564Z,31.52
2019-02-18T04:03:27.609Z,32.75
2019-02-18T04:05:20.587Z,31.23
2019-02-18T04:06:20.635Z,30.76
2019-02-18T04:08:13.615Z,31.33
2019-02-18T04:09:13.662Z,30.95
2019-02-18T04:11:06.647Z,29.53
2019-02-18T04:12:06.692Z,29.53
2019-02-18T04:13:59.665Z,29.62
2019-02-18T04:14:59.771Z,28.30
2019-02-18T04:16:52.699Z,27.35
2019-02-18T04:17:52.759Z,26.59
2019-02-18T04:19:45.720Z,26.88
2019-02-18T04:20:45.776Z,26.21
2019-02-18T04:22:38.754Z,25.84
2019-02-18T04:23:38.802Z,25.74
2019-02-18T04:25:31.774Z,25.93
2019-02-18T04:26:31.826Z,26.78
2019-02-18T04:28:24.804Z,27.16
2019-02-18T04:29:24.852Z,28.30
2019-02-18T04:31:17.833Z,28.30
2019-02-18T04:32:17.883Z,28.67
2019-02-18T04:34:10.858Z,29.62
2019-02-18T04:35:10.909Z,29.62
2019-02-18T04:37:03.890Z,29.24
2019-02-18T04:38:03.937Z,28.58
2019-02-18T04:39:56.923Z,28.77
2019-02-18T04:40:56.963Z,28.77
2019-02-18T04:42:49.942Z,29.72
2019-02-18T04:43:49.990Z,29.81
2019-02-18T04:45:42.965Z,29.72
2019-02-18T04:46:43.069Z,30.19
2019-02-18T04:48:35.997Z,29.05
2019-02-18T04:49:36.045Z,29.43
2019-02-18T04:51:29.019Z,28.39
2019-02-18T04:52:29.071Z,28.11
2019-02-18T04:54:22.053Z,28.11
2019-02-18T04:55:22.103Z,27.92
2019-02-18T04:57:15.082Z,28.11
2019-02-18T04:58:15.128Z,27.92
2019-02-18T05:00:08.584Z,28.11
2019-02-18T05:01:08.157Z,28.20
2019-02-18T05:03:01.132Z,29.62
2019-02-18T05:04:01.182Z,29.53
2019-02-18T05:05:54.181Z,29.62
2019-02-18T05:06:54.215Z,29.91
2019-02-18T05:08:47.190Z,29.62
2019-02-18T05:09:47.242Z,29.72
2019-02-18T05:11:40.211Z,28.67
2019-02-18T05:12:40.268Z,28.67
2019-02-18T05:14:33.243Z,27.92
2019-02-18T05:15:33.292Z,27.16
2019-02-18T05:17:26.267Z,26.69
2019-02-18T05:18:26.318Z,26.88
2019-02-18T05:20:19.284Z,26.40
2019-02-18T05:21:19.339Z,26.31
2019-02-18T05:23:12.312Z,26.88
2019-02-18T05:24:12.363Z,26.69
2019-02-18T05:26:05.337Z,26.40
2019-02-18T05:27:05.388Z,26.59
2019-02-18T05:28:58.368Z,26.69
2019-02-18T05:29:58.410Z,26.88
2019-02-18T05:31:51.392Z,26.78
2019-02-18T05:32:51.445Z,26.40
2019-02-18T05:34:44.425Z,26.40
2019-02-18T05:35:44.470Z,26.21
2019-02-18T05:37:37.451Z,26.40
2019-02-18T05:38:37.499Z,26.59
2019-02-18T05:40:30.486Z,26.69
2019-02-18T05:41:31.352Z,26.50
2019-02-18T05:43:23.507Z,26.31
2019-02-18T05:44:23.551Z,26.31
2019-02-18T05:46:16.540Z,27.07
2019-02-18T05:47:16.582Z,27.26
2019-02-18T05:49:09.562Z,26.78
2019-02-18T05:50:09.611Z,26.69
2019-02-18T05:52:02.582Z,26.40
2019-02-18T05:53:02.637Z,26.40
2019-02-18T05:54:55.624Z,24.89
2019-02-18T05:55:55.671Z,24.61
2019-02-18T05:57:48.673Z,25.08
2019-02-18T05:58:48.701Z,25.37
2019-02-18T06:00:41.672Z,25.08
2019-02-18T06:01:41.731Z,25.08
2019-02-18T06:03:34.702Z,27.54
2019-02-18T06:04:34.753Z,28.58
2019-02-18T06:06:27.725Z,27.83
2019-02-18T06:07:27.787Z,27.45
2019-02-18T06:09:29.211Z,26.31
2019-02-18T06:10:20.811Z,25.84
2019-02-18T06:12:13.761Z,26.31
2019-02-18T06:13:13.828Z,25.46
2019-02-18T06:15:06.825Z,26.40
2019-02-18T06:16:06.846Z,26.50
2019-02-18T06:17:59.823Z,26.21
2019-02-18T06:18:59.875Z,25.93
2019-02-18T06:20:53.358Z,26.50
2019-02-18T06:21:53.418Z,26.50
2019-02-18T06:23:46.390Z,26.12
2019-02-18T06:24:46.434Z,26.12
2019-02-18T06:26:39.419Z,26.21
2019-02-18T06:27:39.475Z,26.69
2019-02-18T06:29:32.446Z,26.03
2019-02-18T06:30:32.505Z,26.69
2019-02-18T06:32:25.475Z,26.88
2019-02-18T06:33:28.080Z,27.07
2019-02-18T06:35:18.508Z,26.97
2019-02-18T06:36:18.556Z,27.07
2019-02-18T06:38:11.551Z,27.07
2019-02-18T06:39:11.588Z,27.45
2019-02-18T06:41:04.561Z,26.78
2019-02-18T06:42:04.613Z,26.50
2019-02-18T06:43:57.596Z,26.40
2019-02-18T06:44:57.643Z,25.84
2019-02-18T06:46:50.614Z,25.65
2019-02-18T06:47:50.669Z,24.80
2019-02-18T06:49:43.654Z,24.31
2019-02-18T06:50:43.694Z,24.31
2019-02-18T06:52:36.685Z,24.50
2019-02-18T06:53:36.732Z,24.31
2019-02-18T06:55:29.704Z,24.51
2019-02-18T06:56:29.750Z,24.51
2019-02-18T06:58:22.725Z,26.03
2019-02-18T06:59:22.777Z,25.46
2019-02-18T07:01:15.772Z,26.31
2019-02-18T07:02:15.858Z,26.31
2019-02-18T07:04:08.793Z,26.12
2019-02-18T07:05:08.838Z,26.03
2019-02-18T07:07:01.809Z,26.40
2019-02-18T07:08:01.864Z,26.40
2019-02-18T07:09:54.862Z,26.88
2019-02-18T07:10:54.892Z,26.59
2019-02-18T07:12:47.873Z,26.69
2019-02-18T07:13:47.938Z,27.64
2019-02-18T07:15:40.915Z,26.88
2019-02-18T07:16:40.962Z,27.45
2019-02-18T07:18:33.931Z,27.73
2019-02-18T07:19:33.987Z,27.64
2019-02-18T07:21:27.469Z,27.83
2019-02-18T07:22:27.520Z,27.64
2019-02-18T07:24:20.536Z,27.54
2019-02-18T07:25:20.555Z,28.02
2019-02-18T07:27:13.512Z,28.30
2019-02-18T07:28:13.592Z,28.30
2019-02-18T07:30:06.553Z,28.58
2019-02-18T07:31:06.612Z,28.77
2019-02-18T07:32:59.566Z,28.30
2019-02-18T07:33:59.617Z,28.30
2019-02-18T07:35:52.594Z,26.97
2019-02-18T07:36:52.645Z,26.78
2019-02-18T07:38:45.619Z,25.56
2019-02-18T07:39:45.676Z,25.66
2019-02-18T07:41:38.676Z,26.31
2019-02-18T07:42:38.708Z,26.32
2019-02-18T07:44:31.685Z,26.51
2019-02-18T07:45:31.730Z,27.17
2019-02-18T07:47:24.710Z,28.13
2019-02-18T07:48:24.760Z,27.75
2019-02-18T07:50:20.613Z,27.46
2019-02-18T07:51:17.779Z,26.79
2019-02-18T07:53:10.753Z,25.38
2019-02-18T07:54:10.810Z,25.47
2019-02-18T07:56:03.790Z,28.31
2019-02-18T07:57:03.836Z,31.93
2019-02-18T07:58:56.816Z,55.91
2019-02-18T07:59:56.876Z,70.19
2019-02-18T08:01:49.855Z,83.14
2019-02-18T08:02:49.903Z,87.65
2019-02-18T08:04:42.895Z,91.36
2019-02-18T08:05:42.951Z,90.60
2019-02-18T08:07:35.932Z,87.40
2019-02-18T08:08:35.985Z,84.36
2019-02-18T08:10:28.969Z,83.54
2019-02-18T08:11:29.018Z,81.86
2019-02-18T08:13:21.994Z,79.10
2019-02-18T08:14:22.041Z,77.80
2019-02-18T08:16:15.039Z,75.13
2019-02-18T08:17:15.084Z,75.13
2019-02-18T08:19:08.059Z,73.73
2019-02-18T08:20:08.115Z,72.01
2019-02-18T08:22:01.117Z,71.06
2019-02-18T08:23:01.166Z,71.00
2019-02-18T08:24:54.151Z,70.14
2019-02-18T08:25:54.209Z,69.02
2019-02-18T08:27:47.198Z,67.69
2019-02-18T08:28:47.265Z,66.25
2019-02-18T08:30:40.229Z,67.97
2019-02-18T08:31:40.290Z,67.49
2019-02-18T08:33:33.284Z,67.24
2019-02-18T08:34:33.330Z,67.14
2019-02-18T08:36:26.333Z,65.52
2019-02-18T08:37:26.386Z,64.98
2019-02-18T08:39:19.377Z,63.57
2019-02-18T08:40:22.430Z,63.67
2019-02-18T08:42:12.441Z,63.39
2019-02-18T08:43:12.475Z,64.18
2019-02-18T08:45:05.471Z,61.40
2019-02-18T08:46:05.563Z,62.17
2019-02-18T08:47:58.509Z,61.05
2019-02-18T08:48:58.559Z,60.76
2019-02-18T08:50:51.543Z,58.17
2019-02-18T08:51:51.605Z,58.84
2019-02-18T08:53:44.593Z,61.27
2019-02-18T08:54:44.642Z,58.97
2019-02-18T08:56:37.645Z,59.38
2019-02-18T08:57:37.706Z,55.64
2019-02-18T08:59:30.708Z,58.71
2019-02-18T09:00:30.740Z,56.51
2019-02-18T09:02:23.724Z,54.68
2019-02-18T09:03:23.777Z,53.82
2019-02-18T09:05:16.806Z,53.15
2019-02-18T09:06:16.822Z,53.82
2019-02-18T09:08:09.809Z,53.41
2019-02-18T09:09:09.876Z,55.45
2019-02-18T09:11:02.856Z,54.01
2019-02-18T09:12:02.909Z,55.26
2019-02-18T09:13:55.908Z,54.53
2019-02-18T09:14:55.958Z,56.96
2019-02-18T09:16:48.951Z,56.48
2019-02-18T09:17:49.001Z,58.39
2019-02-18T09:19:41.982Z,58.65
2019-02-18T09:20:42.043Z,57.31
2019-02-18T09:22:35.023Z,59.97
2019-02-18T09:23:35.085Z,59.84
2019-02-18T09:25:28.066Z,61.41
2019-02-18T09:26:28.125Z,62.62
2019-02-18T09:28:21.114Z,65.45
2019-02-18T09:29:21.163Z,67.71
2019-02-18T09:31:14.145Z,74.38
2019-02-18T09:32:14.205Z,76.20
2019-02-18T09:34:07.196Z,80.07
2019-02-18T09:35:07.246Z,81.88
2019-02-18T09:37:00.233Z,81.74
2019-02-18T09:38:00.285Z,84.60
2019-02-18T09:39:53.272Z,82.69
2019-02-18T09:40:53.322Z,84.22
2019-02-18T09:42:46.344Z,84.50
2019-02-18T09:43:46.363Z,85.08
2019-02-18T09:45:39.346Z,84.31
2019-02-18T09:46:40.432Z,83.55
2019-02-18T09:48:32.388Z,85.50
2019-02-18T09:49:32.439Z,84.41
2019-02-18T09:51:25.423Z,84.79
2019-02-18T09:52:25.473Z,84.31
2019-02-18T09:54:18.486Z,85.41
2019-02-18T09:55:18.515Z,86.36
2019-02-18T09:57:11.492Z,85.69
2019-02-18T09:58:11.573Z,85.50
2019-02-18T10:00:04.546Z,85.21
2019-02-18T10:01:04.603Z,85.97
2019-02-18T10:02:57.601Z,86.36
2019-02-18T10:03:57.635Z,85.69
2019-02-18T10:05:50.619Z,86.65
2019-02-18T10:06:50.684Z,85.88
2019-02-18T10:08:43.671Z,85.78
2019-02-18T10:09:43.720Z,85.60
2019-02-18T10:11:36.698Z,85.41
2019-02-18T10:12:36.753Z,85.78
2019-02-18T10:14:29.745Z,85.73
2019-02-18T10:15:29.792Z,85.16
2019-02-18T10:17:22.772Z,85.93
2019-02-18T10:18:22.832Z,85.73
2019-02-18T10:20:15.816Z,85.54
2019-02-18T10:21:15.872Z,85.35
2019-02-18T10:23:08.847Z,85.83
2019-02-18T10:24:08.901Z,86.40
2019-02-18T10:26:01.889Z,84.49
2019-02-18T10:27:02.054Z,86.59
2019-02-18T10:28:54.923Z,85.16
2019-02-18T10:29:54.972Z,84.78
2019-02-18T10:31:47.959Z,85.68
2019-02-18T10:32:48.018Z,85.77
2019-02-18T10:34:41.002Z,84.92
2019-02-18T10:35:41.052Z,85.58
2019-02-18T10:37:34.030Z,85.30
2019-02-18T10:38:34.094Z,85.21
2019-02-18T10:40:27.089Z,85.87
2019-02-18T10:41:27.137Z,85.77
2019-02-18T10:43:20.115Z,84.86
2019-02-18T10:44:20.185Z,85.91
2019-02-18T10:46:13.163Z,85.91
2019-02-18T10:47:13.222Z,85.68
2019-02-18T10:49:19.091Z,84.48
2019-02-18T10:50:06.253Z,84.48
2019-02-18T10:51:59.232Z,83.81
2019-02-18T10:52:59.287Z,84.39
2019-02-18T10:54:52.288Z,84.00
2019-02-18T10:55:52.350Z,83.34
2019-02-18T10:57:46.319Z,83.05
2019-02-18T10:58:46.385Z,82.67
2019-02-18T11:00:39.379Z,83.28
2019-02-18T11:01:39.424Z,81.76
2019-02-18T11:03:32.414Z,80.04
2019-02-18T11:04:32.471Z,81.66
2019-02-18T11:06:25.475Z,81.27
2019-02-18T11:07:25.524Z,81.27
2019-02-18T11:09:18.520Z,79.22
2019-02-18T11:10:18.585Z,80.46
2019-02-18T11:12:11.551Z,79.31
2019-02-18T11:13:11.606Z,79.31
2019-02-18T11:15:04.597Z,80.93
2019-02-18T11:16:04.642Z,78.64
2019-02-18T11:17:57.629Z,79.22
2019-02-18T11:18:57.685Z,78.26
2019-02-18T11:20:50.671Z,77.87
2019-02-18T11:21:50.723Z,77.11
2019-02-18T11:23:43.713Z,77.01
2019-02-18T11:24:43.754Z,77.69
2019-02-18T11:26:36.751Z,76.64
2019-02-18T11:27:36.804Z,75.62
2019-02-18T11:29:29.786Z,70.94
2019-02-18T11:30:29.840Z,70.27
2019-02-18T11:32:22.827Z,70.65
2019-02-18T11:33:22.881Z,69.41
2019-02-18T11:35:15.888Z,67.97
2019-02-18T11:36:15.916Z,67.59
2019-02-18T11:38:08.905Z,71.03
2019-02-18T11:39:08.956Z,71.83
2019-02-18T11:41:01.944Z,70.50
2019-02-18T11:42:01.996Z,71.16
2019-02-18T11:43:54.975Z,69.15
2019-02-18T11:44:55.034Z,68.49
2019-02-18T11:46:48.043Z,67.72
2019-02-18T11:47:48.096Z,68.01
2019-02-18T11:49:41.087Z,68.49
2019-02-18T11:50:41.150Z,71.93
2019-02-18T11:52:34.121Z,71.93
2019-02-18T11:53:34.177Z,71.36
2019-02-18T11:55:27.164Z,70.24
2019-02-18T11:56:27.220Z,67.94
2019-02-18T11:58:20.207Z,69.09
2019-02-18T11:59:24.337Z,67.85
2019-02-18T12:01:13.270Z,68.33
2019-02-18T12:02:13.317Z,69.48
2019-02-18T12:04:06.400Z,67.85
2019-02-18T12:05:06.355Z,67.47
2019-02-18T12:06:59.341Z,66.41
2019-02-18T12:07:59.393Z,65.45
2019-02-18T12:09:52.375Z,64.79
2019-02-18T12:10:52.427Z,64.50
2019-02-18T12:12:45.427Z,64.12
2019-02-18T12:13:45.474Z,64.72
2019-02-18T12:15:38.495Z,64.05
2019-02-18T12:16:38.561Z,64.15
2019-02-18T12:18:31.550Z,64.43
2019-02-18T12:19:31.690Z,63.96
2019-02-18T12:21:24.600Z,63.51
2019-02-18T12:22:24.655Z,63.96
2019-02-18T12:24:17.637Z,62.52
2019-02-18T12:25:17.694Z,62.14
2019-02-18T12:27:10.770Z,62.62
2019-02-18T12:28:10.749Z,62.62
2019-02-18T12:30:03.721Z,61.98
2019-02-18T12:31:03.783Z,63.03
2019-02-18T12:32:56.778Z,59.39
2019-02-18T12:33:56.845Z,59.39
2019-02-18T12:35:49.805Z,60.35
2019-02-18T12:36:49.874Z,59.20
2019-02-18T12:38:42.851Z,58.34
2019-02-18T12:39:42.906Z,57.48
2019-02-18T12:41:35.895Z,58.53
2019-02-18T12:42:35.944Z,58.34
2019-02-18T12:44:28.947Z,59.01
2019-02-18T12:45:29.009Z,58.53
2019-02-18T12:47:22.112Z,58.91
2019-02-18T12:48:22.163Z,59.39
2019-02-18T12:50:15.150Z,59.58
2019-02-18T12:51:15.212Z,59.52
2019-02-18T12:53:08.199Z,57.70
2019-02-18T12:54:08.251Z,57.21
2019-02-18T12:56:01.235Z,57.41
2019-02-18T12:57:01.294Z,58.27
2019-02-18T12:58:54.898Z,57.28
2019-02-18T12:59:54.567Z,58.65
2019-02-18T13:01:47.315Z,58.75
2019-02-18T13:02:47.384Z,58.94
2019-02-18T13:04:40.385Z,57.12
2019-02-18T13:05:40.425Z,56.74
2019-02-18T13:07:33.411Z,57.31
2019-02-18T13:08:33.468Z,56.07
2019-02-18T13:10:34.659Z,57.03
2019-02-18T13:11:26.525Z,57.03
2019-02-18T13:13:19.499Z,56.74
2019-02-18T13:14:19.551Z,56.54
2019-02-18T13:16:12.539Z,55.40
2019-02-18T13:17:12.597Z,55.49
2019-02-18T13:19:05.601Z,55.21
2019-02-18T13:20:05.647Z,55.49
2019-02-18T13:21:58.628Z,55.30
2019-02-18T13:22:58.687Z,55.49
2019-02-18T13:24:51.684Z,55.78
2019-02-18T13:25:51.740Z,55.78
2019-02-18T13:27:44.760Z,55.78
2019-02-18T13:28:44.777Z,55.78
2019-02-18T13:30:37.762Z,55.01
2019-02-18T13:31:37.822Z,55.49
2019-02-18T13:33:30.813Z,55.40
2019-02-18T13:34:30.865Z,55.11
2019-02-18T13:36:23.850Z,55.42
2019-02-18T13:37:23.909Z,55.42
2019-02-18T13:39:16.923Z,54.85
2019-02-18T13:40:16.967Z,53.60
2019-02-18T13:42:09.950Z,53.48
2019-02-18T13:43:10.018Z,53.79
2019-02-18T13:45:03.005Z,54.46
2019-02-18T13:46:03.056Z,54.37
2019-02-18T13:47:56.036Z,55.23
2019-02-18T13:48:56.095Z,53.99
2019-02-18T13:50:49.097Z,53.70
2019-02-18T13:51:56.439Z,54.37
2019-02-18T13:53:42.160Z,54.08
2019-02-18T13:54:42.210Z,53.79
2019-02-18T13:56:35.202Z,53.03
2019-02-18T13:57:35.261Z,53.70
2019-02-18T13:59:28.254Z,53.41
2019-02-18T14:00:28.318Z,53.03
2019-02-18T14:02:21.465Z,55.04
2019-02-18T14:03:21.393Z,55.33
2019-02-18T14:05:14.386Z,54.75
2019-02-18T14:06:14.437Z,54.37
2019-02-18T14:08:07.458Z,54.37
2019-02-18T14:09:07.493Z,54.17
2019-02-18T14:11:00.495Z,52.93
2019-02-18T14:12:00.570Z,52.83
2019-02-18T14:13:53.549Z,53.31
2019-02-18T14:14:53.600Z,53.41
2019-02-18T14:16:46.588Z,53.60
2019-02-18T14:17:46.641Z,53.70
2019-02-18T14:19:40.149Z,53.12
2019-02-18T14:20:40.197Z,52.83
2019-02-18T14:22:33.184Z,52.45
2019-02-18T14:23:33.245Z,53.03
2019-02-18T14:25:26.239Z,51.20
2019-02-18T14:26:26.289Z,51.59
2019-02-18T14:28:19.280Z,51.78
2019-02-18T14:29:19.334Z,51.68
2019-02-18T14:31:12.321Z,52.45
2019-02-18T14:32:12.798Z,52.45
2019-02-18T14:34:07.050Z,51.87
2019-02-18T14:35:05.425Z,50.82
2019-02-18T14:36:58.450Z,51.87
2019-02-18T14:37:58.498Z,51.01
2019-02-18T14:39:51.478Z,50.73
2019-02-18T14:40:51.535Z,52.45
2019-02-18T14:42:44.523Z,51.20
2019-02-18T14:43:44.582Z,51.10
2019-02-18T14:45:37.571Z,51.78
2019-02-18T14:46:37.626Z,51.78
2019-02-18T14:48:30.626Z,51.78
2019-02-18T14:49:30.672Z,51.10
2019-02-18T14:51:23.658Z,52.16
2019-02-18T14:52:23.737Z,51.59
2019-02-18T14:54:16.715Z,50.89
2019-02-18T14:55:16.770Z,51.20
2019-02-18T14:57:09.753Z,51.37
2019-02-18T14:58:09.814Z,51.20
2019-02-18T15:00:02.811Z,51.08
2019-02-18T15:01:02.859Z,51.75
2019-02-18T15:02:55.847Z,52.91
2019-02-18T15:03:55.908Z,53.48
2019-02-18T15:05:48.893Z,53.00
2019-02-18T15:06:48.945Z,53.00
2019-02-18T15:08:41.964Z,53.48
2019-02-18T15:09:42.017Z,53.77
2019-02-18T15:11:35.004Z,52.71
2019-02-18T15:12:35.060Z,52.81
2019-02-18T15:14:28.055Z,53.28
2019-02-18T15:15:28.110Z,53.19
2019-02-18T15:17:21.111Z,52.97
2019-02-18T15:18:21.155Z,53.36
2019-02-18T15:20:14.671Z,53.55
2019-02-18T15:21:14.721Z,53.55
2019-02-18T15:23:08.212Z,54.70
2019-02-18T15:24:08.268Z,54.12
2019-02-18T15:26:01.262Z,54.03
2019-02-18T15:27:01.313Z,55.36
2019-02-18T15:28:54.329Z,53.83
2019-02-18T15:29:54.360Z,54.89
2019-02-18T15:31:47.376Z,54.60
2019-02-18T15:32:47.426Z,55.24
2019-02-18T15:34:40.414Z,54.48
2019-02-18T15:35:40.467Z,55.73
2019-02-18T15:37:33.449Z,55.08
2019-02-18T15:38:33.508Z,55.24
2019-02-18T15:40:26.503Z,55.15
2019-02-18T15:41:26.552Z,54.67
2019-02-18T15:43:19.535Z,55.63
2019-02-18T15:44:19.598Z,55.53
2019-02-18T15:46:12.607Z,55.34
2019-02-18T15:47:12.661Z,55.24
2019-02-18T15:49:05.645Z,55.63
2019-02-18T15:50:05.704Z,55.63
2019-02-18T15:51:58.703Z,56.59
2019-02-18T15:52:58.750Z,56.94
2019-02-18T15:54:52.248Z,58.37
2019-02-18T15:55:54.130Z,59.23
2019-02-18T15:57:45.789Z,59.14
2019-02-18T15:58:45.850Z,59.62
2019-02-18T16:00:38.840Z,60.86
2019-02-18T16:01:38.895Z,60.16
2019-02-18T16:03:31.881Z,60.38
2019-02-18T16:04:31.939Z,61.31
2019-02-18T16:06:24.942Z,61.12
2019-02-18T16:07:24.991Z,61.51
2019-02-18T16:09:18.009Z,61.22
2019-02-18T16:10:18.032Z,61.31
2019-02-18T16:12:11.024Z,61.41
2019-02-18T16:13:11.079Z,61.98
2019-02-18T16:15:04.072Z,64.34
2019-02-18T16:16:04.129Z,63.48
2019-02-18T16:17:57.107Z,63.57
2019-02-18T16:18:57.165Z,64.72
2019-02-18T16:20:50.155Z,65.93
2019-02-18T16:21:50.248Z,67.08
2019-02-18T16:23:43.209Z,68.23
2019-02-18T16:24:43.269Z,68.51
2019-02-18T16:26:36.262Z,68.13
2019-02-18T16:27:36.309Z,68.76
2019-02-18T16:29:29.315Z,70.58
2019-02-18T16:30:29.353Z,70.67
2019-02-18T16:32:22.350Z,74.49
2019-02-18T16:33:22.404Z,74.88
2019-02-18T16:35:15.391Z,76.56
2019-02-18T16:36:15.451Z,78.47
2019-02-18T16:38:08.973Z,80.19
2019-02-18T16:39:09.020Z,81.14
2019-02-18T16:41:02.026Z,83.05
2019-02-18T16:42:02.082Z,82.86
2019-02-18T16:43:55.068Z,83.29
2019-02-18T16:44:55.127Z,84.34
2019-02-18T16:46:48.114Z,84.53
2019-02-18T16:47:48.173Z,84.44
2019-02-18T16:49:41.167Z,84.44
2019-02-18T16:50:41.222Z,84.82
2019-02-18T16:52:34.212Z,84.40
2019-02-18T16:53:34.266Z,85.45
2019-02-18T16:55:27.247Z,85.06
2019-02-18T16:56:27.322Z,85.35
2019-02-18T16:58:20.299Z,84.49
2019-02-18T16:59:20.355Z,83.92
2019-02-18T17:01:13.352Z,83.64
2019-02-18T17:02:13.396Z,83.83
2019-02-18T17:04:06.384Z,83.40
2019-02-18T17:05:06.442Z,84.07
2019-02-18T17:06:59.432Z,83.12
2019-02-18T17:07:59.482Z,83.12
2019-02-18T17:09:52.466Z,83.59
2019-02-18T17:10:52.523Z,83.21
2019-02-18T17:12:45.530Z,82.92
2019-02-18T17:13:45.568Z,83.31
2019-02-18T17:15:38.555Z,81.46
2019-02-18T17:16:38.608Z,81.88
2019-02-18T17:18:31.600Z,80.98
2019-02-18T17:19:31.649Z,80.69
2019-02-18T17:21:24.649Z,80.98
2019-02-18T17:22:24.694Z,82.41
2019-02-18T17:24:17.689Z,79.55
2019-02-18T17:25:17.741Z,79.83
2019-02-18T17:27:10.730Z,82.12
2019-02-18T17:28:10.780Z,82.79
2019-02-18T17:30:03.767Z,81.74
2019-02-18T17:31:03.828Z,82.60
2019-02-18T17:32:56.814Z,79.17
2019-02-18T17:33:56.867Z,79.51
2019-02-18T17:35:49.900Z,79.51
2019-02-18T17:36:49.951Z,79.70
2019-02-18T17:38:43.813Z,82.27
2019-02-18T17:39:43.868Z,81.89
2019-02-18T17:41:36.846Z,81.03
2019-02-18T17:42:36.908Z,80.75
2019-02-18T17:44:29.897Z,80.55
2019-02-18T17:45:29.947Z,80.46
2019-02-18T17:47:22.938Z,80.46
2019-02-18T17:48:22.988Z,81.41
2019-02-18T17:50:15.974Z,80.46
2019-02-18T17:51:16.023Z,81.70
2019-02-18T17:53:09.016Z,83.80
2019-02-18T17:54:09.062Z,82.46
2019-02-18T17:56:02.059Z,81.79
2019-02-18T17:57:02.100Z,81.32
2019-02-18T17:58:55.095Z,78.94
2019-02-18T17:59:55.169Z,78.99
2019-02-18T18:01:48.139Z,77.28
2019-02-18T18:02:48.198Z,75.76
2019-02-18T18:04:41.185Z,75.47
2019-02-18T18:05:41.243Z,75.67
2019-02-18T18:07:34.217Z,77.28
2019-02-18T18:08:34.273Z,76.23
2019-02-18T18:10:27.265Z,74.52
2019-02-18T18:11:27.311Z,74.14
2019-02-18T18:13:25.244Z,74.33
2019-02-18T18:14:20.347Z,73.38
2019-02-18T18:16:13.337Z,73.95
2019-02-18T18:17:13.384Z,75.57
2019-02-18T18:19:09.365Z,74.90
2019-02-18T18:20:06.428Z,74.80
2019-02-18T18:21:59.411Z,84.61
2019-02-18T18:22:59.471Z,84.99
2019-02-18T18:24:52.468Z,89.22
2019-02-18T18:25:52.521Z,87.70
2019-02-18T18:27:45.500Z,86.03
2019-02-18T18:28:45.555Z,85.64
2019-02-18T18:30:38.546Z,85.27
2019-02-18T18:31:38.598Z,83.84
2019-02-18T18:33:31.684Z,83.55